LYBE/BEG METAR and TAF weather

Enter ICAO airport designator
Station Type Date Time Source
LYBE METAR 2018/09/22 15:30 UTC NOAA

LYBE 221530Z 33011KT CAVOK 21/07 Q1021 NOSIG


Station Type Date Time Source
LYBE Decoded METAR 2018/09/22 15:30 UTC NOAA

Beograd / Surcin, Serbia and Montenegro (LYBE) 44-49N 020-17E 99M
Sep 22, 2018 - 11:30 AM EDT / 2018.09.22 1530 UTC
Wind: from the NNW (330 degrees) at 13 MPH (11 KT):0
Visibility: greater than 7 mile(s):0
Temperature: 69 F (21 C)
Dew Point: 44 F (7 C)
Relative Humidity: 40%
Pressure (altimeter): 30.15 in. Hg (1021 hPa)
ob: LYBE 221530Z 33011KT CAVOK 21/07 Q1021 NOSIG
cycle: 15

Station Type Date Time Source
LYBE TAF 2018/09/22 12:21 UTC NOAA

TAF LYBE 221100Z 2212/2312 34014KT CAVOK TX26/2312Z TN12/2304Z
TEMPO 2212/2216 34016G26KT
BECMG 2219/2221 04007KT


Example: see airport list